This is the latest recevied weather packets stored in our database for station/object IU1DOF-3. If no packets are shown the sender has not sent any weather packets the latest 10 day(s).
| Time | Temp. | Humidity | Pressure | Rain* | Wind** | Luminosity | Snow |
|---|---|---|---|---|---|---|---|
| 1777708780 | 13.33° C | 58% | 1023.7 hPa | 0 mm | - | - | - |
| 1777708161 | 13.89° C | 55% | 1023.7 hPa | 0 mm | - | - | - |
| 1777707535 | 12.78° C | 54% | 1023.7 hPa | 0 mm | - | - | - |
| 1777706921 | 12.78° C | 59% | 1023.9 hPa | 0 mm | - | - | - |
| 1777706304 | 12.22° C | 56% | 1024.1 hPa | 0 mm | - | - | - |
| 1777705680 | 12.78° C | 54% | 1024.3 hPa | 0 mm | - | - | - |
| 1777705061 | 11.67° C | 60% | 1024.2 hPa | 0 mm | - | - | - |
| 1777704448 | 10° C | 65% | 1024.2 hPa | 0 mm | - | - | - |
| 1777703824 | 10° C | 67% | 1024.2 hPa | 0 mm | - | - | - |
| 1777703199 | 9.44° C | 70% | 1024 hPa | 0 mm | - | - | - |
| 1777702576 | 8.33° C | 71% | 1024.1 hPa | 0 mm | - | - | - |
| 1777701952 | 7.78° C | 73% | 1024.3 hPa | 0 mm | - | - | - |
| 1777701341 | 7.22° C | 77% | 1024.2 hPa | 0 mm | - | - | - |
| 1777700721 | 6.11° C | 83% | 1024.3 hPa | 0 mm | - | - | - |
| 1777700096 | 5° C | 89% | 1024.2 hPa | 0 mm | - | - | - |
| 1777699481 | 5° C | 88% | 1024.2 hPa | 0 mm | - | - | - |
| 1777698864 | 4.44° C | 89% | 1024.4 hPa | 0 mm | - | - | - |
| 1777698239 | 4.44° C | 87% | 1024.1 hPa | 0 mm | - | - | - |
| 1777697621 | 4.44° C | 88% | 1023.9 hPa | 0 mm | - | - | - |
| 1777697008 | 4.44° C | 87% | 1024 hPa | 0 mm | - | - | - |
| 1777696383 | 4.44° C | 88% | 1024 hPa | 0 mm | - | - | - |
| 1777695759 | 4.44° C | 85% | 1024 hPa | 0 mm | - | - | - |
| 1777695135 | 5° C | 87% | 1024.1 hPa | 0 mm | - | - | - |
| 1777694512 | 4.44° C | 87% | 1023.9 hPa | 0 mm | - | - | - |
| 1777693901 | 4.44° C | 89% | 1024.1 hPa | 0 mm | - | - | - |
* Rain latest hour (hover to see other rain measurements)
** Current wind speed in m/s (hover to see current wind gust speed)